createdAt,value
2022-08-31T00:03:27.227Z,10.60
2022-08-31T00:15:27.705Z,9.50
2022-08-31T00:27:28.136Z,10.80
2022-08-31T00:39:28.610Z,9.30
2022-08-31T00:51:29.057Z,11.50
2022-08-31T01:03:29.523Z,9.70
2022-08-31T01:15:29.974Z,12.10
2022-08-31T01:27:30.417Z,11.70
2022-08-31T01:39:30.876Z,13.30
2022-08-31T01:51:31.333Z,11.10
2022-08-31T02:03:31.837Z,10.60
2022-08-31T02:15:32.229Z,13.20
2022-08-31T02:27:32.675Z,13.10
2022-08-31T02:39:33.154Z,11.60
2022-08-31T02:51:33.608Z,13.20
2022-08-31T03:03:34.063Z,12.40
2022-08-31T03:15:34.528Z,14.50
2022-08-31T03:27:34.993Z,14.50
2022-08-31T03:39:35.414Z,13.10
2022-08-31T03:51:35.870Z,16.40
2022-08-31T04:03:36.298Z,13.60
2022-08-31T04:15:36.821Z,11.70
2022-08-31T04:27:37.302Z,11.90
2022-08-31T04:39:50.331Z,10.80
2022-08-31T04:51:38.108Z,8.80
2022-08-31T05:03:39.094Z,9.60
2022-08-31T05:15:39.086Z,15.30
2022-08-31T05:27:39.526Z,9.70
2022-08-31T05:39:39.941Z,14.60
2022-08-31T05:51:40.450Z,10.00
2022-08-31T06:03:40.880Z,9.30
2022-08-31T06:15:42.254Z,8.40
2022-08-31T06:27:41.793Z,7.60
2022-08-31T06:39:42.210Z,7.50
2022-08-31T06:51:42.658Z,7.50
2022-08-31T07:03:43.135Z,9.00
2022-08-31T07:15:43.569Z,7.30
2022-08-31T07:27:44.085Z,6.10
2022-08-31T07:39:44.475Z,7.00
2022-08-31T07:51:44.988Z,5.70
2022-08-31T08:03:45.416Z,5.80
2022-08-31T08:15:45.941Z,6.80
2022-08-31T08:27:46.342Z,7.10
2022-08-31T08:39:46.761Z,5.00
2022-08-31T08:51:47.251Z,6.70
2022-08-31T09:03:47.714Z,5.30
2022-08-31T09:15:48.190Z,5.70
2022-08-31T09:27:48.586Z,4.10
2022-08-31T09:39:49.045Z,4.60
2022-08-31T09:51:49.546Z,6.00
2022-08-31T10:03:49.933Z,9.00
2022-08-31T10:15:50.500Z,4.10
2022-08-31T10:27:50.883Z,7.70
2022-08-31T10:39:51.347Z,6.20
2022-08-31T10:51:51.847Z,6.20
2022-08-31T11:03:52.231Z,5.90
2022-08-31T11:15:52.763Z,5.60
2022-08-31T11:27:53.195Z,4.70
2022-08-31T11:39:53.583Z,5.10
2022-08-31T11:51:54.072Z,4.90
2022-08-31T12:03:54.548Z,6.00
2022-08-31T12:15:55.044Z,6.00
2022-08-31T12:27:55.445Z,6.20
2022-08-31T12:39:55.894Z,6.20
2022-08-31T12:51:56.360Z,9.10
2022-08-31T13:03:56.810Z,8.10
2022-08-31T13:15:57.287Z,9.10
2022-08-31T13:27:57.740Z,6.10
2022-08-31T13:39:58.188Z,9.20
2022-08-31T13:51:58.657Z,7.40
2022-08-31T14:03:59.360Z,5.60
2022-08-31T14:15:59.545Z,8.00
2022-08-31T14:28:00.019Z,10.00
2022-08-31T14:40:05.593Z,7.20
2022-08-31T14:52:00.893Z,7.80
2022-08-31T15:04:01.384Z,7.80
2022-08-31T15:16:01.803Z,8.20
2022-08-31T15:28:02.309Z,8.10
2022-08-31T15:40:03.689Z,7.80
2022-08-31T15:52:03.191Z,7.40
2022-08-31T16:04:03.619Z,7.70
2022-08-31T16:16:04.196Z,7.60
2022-08-31T16:28:04.568Z,7.80
2022-08-31T16:40:05.072Z,10.10
2022-08-31T16:52:05.474Z,6.90
2022-08-31T17:04:05.945Z,7.90
2022-08-31T17:16:06.432Z,8.00
2022-08-31T17:28:12.993Z,7.30
2022-08-31T17:40:07.308Z,6.70
2022-08-31T17:52:07.790Z,6.80
2022-08-31T18:04:08.313Z,8.40
2022-08-31T18:16:08.700Z,9.40
2022-08-31T18:28:09.156Z,10.70
2022-08-31T18:40:09.627Z,12.70
2022-08-31T18:52:10.031Z,15.00
2022-08-31T19:04:10.986Z,12.90
2022-08-31T19:16:15.909Z,12.10
2022-08-31T19:28:11.414Z,16.40
2022-08-31T19:40:11.869Z,10.30
2022-08-31T19:52:12.296Z,9.90
2022-08-31T20:04:16.453Z,12.60
2022-08-31T20:16:13.348Z,10.90
2022-08-31T20:28:13.640Z,9.30
2022-08-31T20:40:14.138Z,9.50
2022-08-31T20:52:14.578Z,9.00
2022-08-31T21:04:15.041Z,12.00
2022-08-31T21:16:15.526Z,12.30
2022-08-31T21:28:15.940Z,9.90
2022-08-31T21:40:16.440Z,12.70
2022-08-31T21:52:16.857Z,11.60
2022-08-31T22:04:17.307Z,14.00
2022-08-31T22:16:19.844Z,12.00
2022-08-31T22:28:18.411Z,14.40
2022-08-31T22:40:18.727Z,14.30
2022-08-31T22:52:19.074Z,14.40
2022-08-31T23:04:19.536Z,16.00
2022-08-31T23:16:20.095Z,14.00
2022-08-31T23:28:20.650Z,14.90
2022-08-31T23:40:20.939Z,18.60
2022-08-31T23:52:21.520Z,16.10
